西安 の空港の天気 - METARとTAF

西安咸陽国際空港 ( ZLXY / XIY ) - 中国 陝西省西安市
飛行場実況気象(Metar)
観測時間12/12 17:00 CST (12/12 09:00 UTC)
風向・風速静穏 0m/s
視程10km以上
天気現象
なし
気温2℃
湿度19%
気圧1031hPa
METARZLXY 120900Z 00000MPS CAVOK 02/M19 Q1031 NOSIG
過去の天気等 Google飛行場航空写真 Wunderground天気予報

過去48時間のMETAR

飛行場予報(TAF)
発表時間: 12/12 11:11 CST (12/12 03:11 UTC)
予報対象時間: 12日14時 CST ~ 13日14時 CST
風向・風速東北東 3m/s
視程3000m
天気現象煙霧
なし
TAF ZLXY 120311Z 1206/1306 06003MPS 3000 HZ NSC TX02/1207Z TNM08/22Z